Terminal Aerodrome Forecast
Issued by NWS Key West, FL

Home | Current Version | Previous Version | Text Only | Print | Product List | Glossary On
Versions: 1 2 3 4 5 6 7 8 9 10 11 12 13 14 15 16 17 18 19 20 21 22 23 24 25 26 27 28 29 30 31 32 33 34 35 36 37 38 39 40 41 42 43 44 45 46
000
FTUS42 KKEY 250732 AAB
TAFEYW
TAF AMD
KEYW 250732Z 2508/2606 VRB06KT P6SM VCSH SCT015 SCT060 BKN120
     FM251500 09011KT P6SM VCSH FEW020 SCT050 OVC070
     FM252000 10012G18KT P6SM SCT015 SCT030 OVC060 PROB30 2520/2602
      12016G26KT 3SM +TSRA BR BKN015CB OVC030=

USA.gov is the U.S. government's official web portal to all federal, state and local government web resources and services.